Time;durP1;ratioP1;P1;durP2;ratioP2;P2;SDS_P1;SDS_P2;PMS_P1;PMS_P2;Temp;Humidity;BMP_temperature;BMP_pressure;BME280_temperature;BME280_humidity;BME280_pressure;Samples;Min_cycle;Max_cycle;Signal;HPM_P1;HPM_P2
2023/12/25 05:08:27;;;;;;;;;;;17.20;82.60;;;;;;5053779;28;20480;-71
2023/12/25 05:10:53;;;;;;;;;;;17.20;87.60;;;;;;5053498;28;20013;-71
2023/12/25 05:13:18;;;;;;;;;;;17.10;87.90;;;;;;5053548;28;19939;-72
2023/12/25 05:15:44;;;;;;;;;;;17.10;87.90;;;;;;5053416;28;20004;-72
2023/12/25 05:18:09;;;;;;;;;;;17.20;88.20;;;;;;5053426;28;19991;-72
2023/12/25 05:20:35;;;;;;;;;;;17.10;87.70;;;;;;5053432;28;19916;-72
2023/12/25 05:23:01;;;;;;;;;;;17.10;87.50;;;;;;5053378;28;19916;-72
2023/12/25 05:25:26;;;;;;;;;;;17.10;88.00;;;;;;5053501;28;19909;-72
2023/12/25 05:27:52;;;;;;;;;;;17.20;87.80;;;;;;5053209;28;19978;-72
2023/12/25 05:30:17;;;;;;;;;;;17.10;88.00;;;;;;5053116;28;19917;-73
2023/12/25 05:32:43;;;;;;;;;;;17.10;87.70;;;;;;5053068;28;19909;-72
2023/12/25 05:35:08;;;;;;;;;;;17.10;87.90;;;;;;5053904;28;19931;-72
2023/12/25 05:37:34;;;;;;;;;;;17.10;87.80;;;;;;5052565;28;19931;-72
2023/12/25 05:40:00;;;;;;;;;;;17.10;87.70;;;;;;5053009;28;20418;-72
2023/12/25 05:42:25;;;;;;;;;;;17.10;87.90;;;;;;5053003;28;19909;-72
2023/12/25 05:44:51;;;;;;;;;;;17.10;87.70;;;;;;5052916;28;19909;-72
2023/12/25 05:47:17;;;;;;;;;;;16.90;87.70;;;;;;5053241;28;19986;-72
2023/12/25 05:49:42;;;;;;;;;;;17.10;88.00;;;;;;5053072;28;19912;-72
2023/12/25 05:52:08;;;;;;;;;;;17.10;88.10;;;;;;5053133;28;20308;-72
2023/12/25 05:54:34;;;;;;;;;;;17.20;88.20;;;;;;5052774;28;20396;-71
2023/12/25 05:57:00;;;;;;;;;;;17.10;88.00;;;;;;5053007;28;19927;-72
2023/12/25 05:59:26;;;;;;;;;;;17.20;88.30;;;;;;5052892;28;19931;-72
2023/12/25 06:01:52;;;;;;;;;;;17.20;87.80;;;;;;5052396;28;19916;-72
2023/12/25 06:04:18;;;;;;;;;;;17.20;88.40;;;;;;5053438;28;19912;-72
2023/12/25 06:06:44;;;;;;;;;;;17.10;88.20;;;;;;5052435;28;20334;-72
2023/12/25 06:09:13;;;;;;;;;;;17.30;88.40;;;;;;5052410;28;19935;-72
2023/12/25 06:11:39;;;;;;;;;;;17.10;83.80;;;;;;5052801;28;19944;-72
2023/12/25 06:14:04;;;;;;;;;;;17.20;88.60;;;;;;5052485;28;20280;-72
2023/12/25 06:16:30;;;;;;;;;;;17.10;88.10;;;;;;5052606;28;19917;-72
2023/12/25 06:18:55;;;;;;;;;;;17.20;88.40;;;;;;5052373;28;19916;-72
2023/12/25 06:21:21;;;;;;;;;;;17.20;88.30;;;;;;5034690;28;20318;-72
2023/12/25 06:23:46;;;;;;;;;;;17.20;88.10;;;;;;5052379;28;19916;-72
2023/12/25 06:26:12;;;;;;;;;;;17.30;88.40;;;;;;5052423;28;19915;-72
2023/12/25 06:28:37;;;;;;;;;;;17.20;88.10;;;;;;5052416;28;20379;-73
2023/12/25 06:31:03;;;;;;;;;;;17.20;88.30;;;;;;5052288;28;20023;-72
2023/12/25 06:33:28;;;;;;;;;;;17.20;87.70;;;;;;5053048;28;20318;-72
2023/12/25 06:35:54;;;;;;;;;;;17.20;88.40;;;;;;5052291;28;20011;-72
2023/12/25 06:38:19;;;;;;;;;;;17.30;88.20;;;;;;5052263;28;20039;-72
2023/12/25 06:40:45;;;;;;;;;;;17.30;88.30;;;;;;5052501;28;19944;-72
2023/12/25 06:43:11;;;;;;;;;;;17.30;88.10;;;;;;5052212;28;20405;-72
2023/12/25 06:45:36;;;;;;;;;;;17.30;88.10;;;;;;5034370;28;19959;-72
2023/12/25 06:48:02;;;;;;;;;;;17.30;88.00;;;;;;5052124;28;20003;-72
2023/12/25 06:50:27;;;;;;;;;;;17.20;87.20;;;;;;5054197;28;19916;-72
2023/12/25 06:52:52;;;;;;;;;;;17.20;88.00;;;;;;5056077;28;20298;-72
2023/12/25 06:55:18;;;;;;;;;;;17.30;87.90;;;;;;5056109;28;19909;-72
2023/12/25 06:57:43;;;;;;;;;;;17.30;88.00;;;;;;5056047;28;20302;-72
2023/12/25 07:00:10;;;;;;;;;;;17.30;87.80;;;;;;5055988;28;20389;-72
2023/12/25 07:02:36;;;;;;;;;;;17.30;87.40;;;;;;5038169;28;19927;-72
2023/12/25 07:05:02;;;;;;;;;;;17.30;87.80;;;;;;5055900;28;19909;-72
2023/12/25 07:07:28;;;;;;;;;;;17.20;87.70;;;;;;5056154;28;19986;-72
2023/12/25 07:09:53;;;;;;;;;;;17.30;87.80;;;;;;5055751;28;19959;-72
2023/12/25 07:12:19;;;;;;;;;;;17.30;87.70;;;;;;5055784;28;19915;-72
2023/12/25 07:14:47;;;;;;;;;;;17.30;87.60;;;;;;5055781;28;19916;-72
2023/12/25 07:17:13;;;;;;;;;;;17.30;87.80;;;;;;5055663;28;19909;-72
2023/12/25 07:19:38;;;;;;;;;;;17.30;87.60;;;;;;5055913;28;19916;-73
2023/12/25 07:22:04;;;;;;;;;;;17.20;87.80;;;;;;5055627;28;19995;-73
2023/12/25 07:24:29;;;;;;;;;;;17.30;87.60;;;;;;5055577;28;19909;-73
2023/12/25 07:26:55;;;;;;;;;;;17.30;87.70;;;;;;5055490;28;19967;-73
2023/12/25 07:29:20;;;;;;;;;;;17.30;87.20;;;;;;5055803;28;19925;-73
2023/12/25 07:31:46;;;;;;;;;;;17.30;87.40;;;;;;5055403;28;19908;-73
2023/12/25 07:34:11;;;;;;;;;;;17.30;87.70;;;;;;5055267;28;19913;-73
2023/12/25 07:36:37;;;;;;;;;;;17.30;87.30;;;;;;5055606;28;19915;-73
2023/12/25 07:39:05;;;;;;;;;;;17.60;87.50;;;;;;5055223;28;19909;-73
2023/12/25 07:41:30;;;;;;;;;;;17.20;86.70;;;;;;5055242;28;19913;-73
2023/12/25 07:44:00;;;;;;;;;;;17.30;87.50;;;;;;5055214;28;20477;-72
2023/12/25 07:46:26;;;;;;;;;;;17.30;87.20;;;;;;5054986;28;19908;-73
2023/12/25 07:48:52;;;;;;;;;;;17.30;87.60;;;;;;5055216;28;19908;-74
2023/12/25 07:51:17;;;;;;;;;;;17.20;87.20;;;;;;5054967;28;19959;-73
2023/12/25 07:53:43;;;;;;;;;;;17.20;87.20;;;;;;5055330;28;20002;-73
2023/12/25 07:56:08;;;;;;;;;;;17.30;87.10;;;;;;5054936;28;19909;-75
2023/12/25 07:58:35;;;;;;;;;;;17.20;86.70;;;;;;5055336;28;19909;-72
2023/12/25 08:01:01;;;;;;;;;;;17.20;87.00;;;;;;5054192;28;20371;-73
2023/12/25 08:03:26;;;;;;;;;;;17.30;86.70;;;;;;5054614;28;19967;-74
2023/12/25 08:05:52;;;;;;;;;;;17.20;87.20;;;;;;5054641;28;19943;-73
2023/12/25 08:08:17;;;;;;;;;;;17.50;87.40;;;;;;5054672;28;20011;-73
2023/12/25 08:10:43;;;;;;;;;;;17.10;87.20;;;;;;5054673;28;19917;-72
2023/12/25 08:13:08;;;;;;;;;;;17.10;87.00;;;;;;5054503;28;19910;-73
2023/12/25 08:15:34;;;;;;;;;;;17.30;87.00;;;;;;5054386;28;19915;-72
2023/12/25 08:17:59;;;;;;;;;;;17.10;87.20;;;;;;5054516;28;19932;-73
2023/12/25 08:20:25;;;;;;;;;;;17.30;87.00;;;;;;5054393;28;19944;-72
2023/12/25 08:22:50;;;;;;;;;;;17.20;87.20;;;;;;5054465;28;19913;-73
2023/12/25 08:25:16;;;;;;;;;;;17.10;87.10;;;;;;5054275;28;20319;-73
2023/12/25 08:27:42;;;;;;;;;;;17.20;87.10;;;;;;5057088;28;19959;-73
2023/12/25 08:30:07;;;;;;;;;;;17.20;87.40;;;;;;5057132;28;20410;-73
2023/12/25 08:32:33;;;;;;;;;;;17.10;85.80;;;;;;5054205;28;20012;-73
2023/12/25 08:34:58;;;;;;;;;;;17.20;87.50;;;;;;5054217;28;19909;-73
2023/12/25 08:37:24;;;;;;;;;;;17.20;87.40;;;;;;5054115;28;19948;-73
2023/12/25 08:39:50;;;;;;;;;;;17.20;87.50;;;;;;5054125;28;19952;-75
2023/12/25 08:42:15;;;;;;;;;;;17.20;87.40;;;;;;5054088;28;19912;-74
2023/12/25 08:44:41;;;;;;;;;;;17.20;87.50;;;;;;5054003;28;19955;-73
2023/12/25 08:47:07;;;;;;;;;;;18.20;88.20;;;;;;5054011;28;19923;-74
2023/12/25 08:49:33;;;;;;;;;;;17.20;87.50;;;;;;5053775;28;19917;-75
2023/12/25 08:51:58;;;;;;;;;;;17.20;87.30;;;;;;5053896;28;19924;-76
2023/12/25 08:54:24;;;;;;;;;;;17.20;87.20;;;;;;5054263;28;19909;-73
2023/12/25 08:56:50;;;;;;;;;;;17.20;87.30;;;;;;5053742;28;19909;-76
2023/12/25 08:59:16;;;;;;;;;;;17.20;87.80;;;;;;5053677;28;19916;-77
2023/12/25 09:01:42;;;;;;;;;;;17.20;87.00;;;;;;5053395;28;19912;-77
2023/12/25 09:04:07;;;;;;;;;;;17.20;87.50;;;;;;5053910;28;20367;-77
2023/12/25 09:06:33;;;;;;;;;;;17.20;87.40;;;;;;5053793;28;19944;-73
2023/12/25 09:08:58;;;;;;;;;;;17.20;86.80;;;;;;5053511;28;19920;-72
2023/12/25 09:11:24;;;;;;;;;;;17.30;87.50;;;;;;5053477;28;19921;-73
2023/12/25 09:13:49;;;;;;;;;;;17.20;87.30;;;;;;5052645;28;19991;-73
2023/12/25 09:16:15;;;;;;;;;;;17.30;87.30;;;;;;5053408;28;19916;-73
2023/12/25 09:18:40;;;;;;;;;;;17.30;87.10;;;;;;5053308;28;19912;-73
2023/12/25 09:21:06;;;;;;;;;;;17.20;87.20;;;;;;5053362;28;20016;-73
2023/12/25 09:23:31;;;;;;;;;;;17.20;86.60;;;;;;5053793;28;20426;-77
2023/12/25 09:25:57;;;;;;;;;;;17.30;87.20;;;;;;5053465;28;20394;-77
2023/12/25 09:28:23;;;;;;;;;;;17.20;87.00;;;;;;5053181;28;19916;-77
2023/12/25 09:30:48;;;;;;;;;;;17.20;87.00;;;;;;5052980;28;19955;-77
2023/12/25 09:33:14;;;;;;;;;;;17.30;86.90;;;;;;5053097;28;19909;-77
2023/12/25 09:35:40;;;;;;;;;;;17.20;87.00;;;;;;5053151;28;19909;-78
2023/12/25 09:38:05;;;;;;;;;;;17.20;86.40;;;;;;5052983;28;19913;-77
2023/12/25 09:40:31;;;;;;;;;;;17.30;87.00;;;;;;5052976;28;19916;-77
2023/12/25 09:42:58;;;;;;;;;;;17.30;86.80;;;;;;5052969;28;20371;-78
2023/12/25 09:45:25;;;;;;;;;;;17.60;87.30;;;;;;5052902;28;19909;-77
2023/12/25 09:47:52;;;;;;;;;;;17.30;86.70;;;;;;5053169;28;20004;-77
2023/12/25 09:50:19;;;;;;;;;;;17.20;87.00;;;;;;5052699;28;19917;-78
2023/12/25 09:52:44;;;;;;;;;;;17.20;86.80;;;;;;5053613;28;20287;-78
2023/12/25 09:55:10;;;;;;;;;;;17.30;86.80;;;;;;5052760;28;19913;-77
2023/12/25 09:57:36;;;;;;;;;;;17.20;86.60;;;;;;5052753;28;19909;-77
2023/12/25 10:00:04;;;;;;;;;;;17.30;86.30;;;;;;5052707;28;19952;-78
2023/12/25 10:02:34;;;;;;;;;;;17.30;86.30;;;;;;5052405;28;19921;-78
2023/12/25 10:05:00;;;;;;;;;;;17.20;86.10;;;;;;5052918;28;19999;-77
2023/12/25 10:07:25;;;;;;;;;;;17.10;86.40;;;;;;5052675;28;19948;-77
2023/12/25 10:09:53;;;;;;;;;;;17.20;86.30;;;;;;5052461;28;19928;-77
2023/12/25 10:12:19;;;;;;;;;;;17.30;81.40;;;;;;5052608;28;20072;-78
2023/12/25 10:14:45;;;;;;;;;;;17.20;86.30;;;;;;5052500;28;20505;-78
2023/12/25 10:17:11;;;;;;;;;;;17.20;86.70;;;;;;5052978;28;20519;-77
2023/12/25 10:19:53;;;;;;;;;;;17.40;86.50;;;;;;5052590;28;19959;-78
2023/12/25 10:22:32;;;;;;;;;;;17.20;80.80;;;;;;5052320;28;19964;-73
2023/12/25 10:25:17;;;;;;;;;;;17.10;81.00;;;;;;5055448;28;19912;-73
2023/12/25 10:27:43;;;;;;;;;;;17.20;86.70;;;;;;5055842;28;19913;-72
2023/12/25 10:30:15;;;;;;;;;;;17.20;86.50;;;;;;5056508;28;19977;-73
2023/12/25 10:32:40;;;;;;;;;;;17.20;81.20;;;;;;5056487;28;20003;-72
2023/12/25 10:35:32;;;;;;;;;;;17.10;86.10;;;;;;5056503;28;19996;-73
2023/12/25 10:37:57;;;;;;;;;;;17.20;81.60;;;;;;5053396;28;19963;-73
2023/12/25 10:40:27;;;;;;;;;;;17.20;86.40;;;;;;5056407;28;19917;-73
2023/12/25 10:42:54;;;;;;;;;;;17.20;81.00;;;;;;5056339;28;20367;-73
2023/12/25 10:45:27;;;;;;;;;;;16.90;86.50;;;;;;5056389;28;19909;-72
2023/12/25 10:47:54;;;;;;;;;;;17.10;81.00;;;;;;5056304;28;20386;-72
2023/12/25 10:50:27;;;;;;;;;;;17.20;86.70;;;;;;5056617;28;19916;-78
2023/12/25 10:52:59;;;;;;;;;;;17.20;81.20;;;;;;5056009;28;19909;-78
2023/12/25 10:55:37;;;;;;;;;;;17.10;86.70;;;;;;5056094;28;20000;-77
2023/12/25 10:58:07;;;;;;;;;;;17.10;80.90;;;;;;5055985;28;19952;-77
2023/12/25 11:00:37;;;;;;;;;;;17.30;81.30;;;;;;5056039;28;19972;-72
2023/12/25 11:03:03;;;;;;;;;;;17.20;86.00;;;;;;5055539;28;19928;-74
2023/12/25 11:05:30;;;;;;;;;;;17.10;85.70;;;;;;5055956;28;19915;-73
2023/12/25 11:07:56;;;;;;;;;;;17.10;86.40;;;;;;5056247;28;19916;-76
2023/12/25 11:10:23;;;;;;;;;;;17.10;86.30;;;;;;5056257;28;20450;-73
2023/12/25 11:12:49;;;;;;;;;;;17.10;86.20;;;;;;5057609;28;19951;-73
2023/12/25 11:15:14;;;;;;;;;;;17.20;87.30;;;;;;5055681;28;19950;-74
2023/12/25 11:17:40;;;;;;;;;;;17.10;86.10;;;;;;5056213;28;19951;-73
2023/12/25 11:20:12;;;;;;;;;;;17.10;86.20;;;;;;5055657;28;20354;-73
2023/12/25 11:22:39;;;;;;;;;;;17.20;81.10;;;;;;5055867;28;19908;-74
2023/12/25 11:25:05;;;;;;;;;;;17.10;86.40;;;;;;5055471;28;19908;-73
2023/12/25 11:27:30;;;;;;;;;;;17.10;85.80;;;;;;5055543;28;19974;-74
2023/12/25 11:30:03;;;;;;;;;;;17.20;86.40;;;;;;5037532;28;19924;-73
2023/12/25 11:32:30;;;;;;;;;;;17.10;81.30;;;;;;5055528;28;19932;-73
2023/12/25 11:34:56;;;;;;;;;;;17.10;86.40;;;;;;5055334;28;19915;-73
2023/12/25 11:37:23;;;;;;;;;;;17.10;87.00;;;;;;5054699;28;19916;-73
2023/12/25 11:39:53;;;;;;;;;;;17.20;86.60;;;;;;5055229;28;20563;-74
2023/12/25 11:42:19;;;;;;;;;;;17.10;81.60;;;;;;5055166;28;20428;-74
2023/12/25 11:44:46;;;;;;;;;;;17.10;86.70;;;;;;5055238;28;19917;-73
2023/12/25 11:47:11;;;;;;;;;;;17.20;87.00;;;;;;5055626;28;20294;-76
2023/12/25 11:49:40;;;;;;;;;;;17.20;86.80;;;;;;5055332;28;19924;-75
2023/12/25 11:52:06;;;;;;;;;;;17.10;82.50;;;;;;5055241;28;19909;-76
2023/12/25 11:54:36;;;;;;;;;;;17.20;86.80;;;;;;5055289;28;19916;-76
2023/12/25 11:57:17;;;;;;;;;;;17.30;87.20;;;;;;5055261;28;19909;-76
2023/12/25 11:59:43;;;;;;;;;;;17.20;81.50;;;;;;5055200;28;19909;-78
2023/12/25 12:02:11;;;;;;;;;;;17.20;86.50;;;;;;5054818;28;19913;-76
2023/12/25 12:04:37;;;;;;;;;;;17.20;87.00;;;;;;5055187;28;19924;-84
2023/12/25 12:07:03;;;;;;;;;;;17.20;86.90;;;;;;5056004;28;19909;-74
2023/12/25 12:09:29;;;;;;;;;;;17.10;86.70;;;;;;5054890;28;19966;-75
2023/12/25 12:11:55;;;;;;;;;;;17.10;86.70;;;;;;5054710;28;20372;-75
2023/12/25 12:14:21;;;;;;;;;;;17.20;86.70;;;;;;5055232;28;19924;-76
2023/12/25 12:16:47;;;;;;;;;;;17.20;86.70;;;;;;5054894;28;19916;-75
2023/12/25 12:19:13;;;;;;;;;;;16.90;86.10;;;;;;5054443;28;19909;-74
2023/12/25 12:21:40;;;;;;;;;;;17.10;86.80;;;;;;5054502;28;20376;-74
2023/12/25 12:24:06;;;;;;;;;;;17.20;86.80;;;;;;5054727;28;20003;-74
2023/12/25 12:26:32;;;;;;;;;;;17.20;86.70;;;;;;5054694;28;20348;-73
2023/12/25 12:28:58;;;;;;;;;;;17.10;86.60;;;;;;5054325;28;20088;-74
2023/12/25 12:31:25;;;;;;;;;;;17.10;86.60;;;;;;5054500;28;19916;-74
2023/12/25 12:33:51;;;;;;;;;;;17.10;86.40;;;;;;5054548;28;19913;-75
2023/12/25 12:36:16;;;;;;;;;;;17.20;86.80;;;;;;5054455;28;19916;-72
2023/12/25 12:38:43;;;;;;;;;;;17.20;86.60;;;;;;5053411;28;20156;-73
2023/12/25 12:41:08;;;;;;;;;;;17.30;86.40;;;;;;5053554;28;19909;-73
2023/12/25 12:43:34;;;;;;;;;;;17.10;86.70;;;;;;5053223;28;20317;-72
2023/12/25 12:46:10;;;;;;;;;;;17.20;86.40;;;;;;5054166;28;19999;-72
2023/12/25 12:48:37;;;;;;;;;;;17.20;86.60;;;;;;5054025;28;19915;-72
2023/12/25 12:51:02;;;;;;;;;;;17.10;86.40;;;;;;5053980;28;19917;-73
2023/12/25 12:53:28;;;;;;;;;;;17.10;86.40;;;;;;5053957;28;20417;-74
2023/12/25 12:55:54;;;;;;;;;;;17.10;86.30;;;;;;5053987;28;19944;-71
2023/12/25 12:58:20;;;;;;;;;;;17.10;86.30;;;;;;5053864;28;19970;-73
2023/12/25 13:00:45;;;;;;;;;;;17.10;86.20;;;;;;5053814;28;20387;-72
2023/12/25 13:03:11;;;;;;;;;;;17.00;85.80;;;;;;5053528;28;20279;-73
2023/12/25 13:05:36;;;;;;;;;;;17.10;85.90;;;;;;5053672;28;20331;-71
2023/12/25 13:08:02;;;;;;;;;;;17.20;85.90;;;;;;5053661;28;20434;-71
2023/12/25 13:10:28;;;;;;;;;;;17.20;85.10;;;;;;5053469;28;19968;-73
2023/12/25 13:12:53;;;;;;;;;;;17.10;85.90;;;;;;5054072;28;20385;-75
2023/12/25 13:15:19;;;;;;;;;;;17.20;85.90;;;;;;5053521;28;20421;-73
2023/12/25 13:17:44;;;;;;;;;;;17.20;86.30;;;;;;5053473;28;20317;-78
2023/12/25 13:20:10;;;;;;;;;;;17.10;86.00;;;;;;5053711;28;20431;-79
2023/12/25 13:22:35;;;;;;;;;;;17.20;85.20;;;;;;5053382;28;20046;-82
2023/12/25 13:25:01;;;;;;;;;;;17.10;85.90;;;;;;5053686;28;20371;-76
2023/12/25 13:27:27;;;;;;;;;;;17.60;85.80;;;;;;5053279;28;19915;-76
2023/12/25 13:29:52;;;;;;;;;;;17.00;85.80;;;;;;5053182;28;19916;-75
2023/12/25 13:32:18;;;;;;;;;;;17.10;85.70;;;;;;5053176;28;19915;-76
2023/12/25 13:34:43;;;;;;;;;;;17.10;85.80;;;;;;5053022;28;19952;-75
2023/12/25 13:37:09;;;;;;;;;;;17.00;85.70;;;;;;5053109;28;19909;-75
2023/12/25 13:39:35;;;;;;;;;;;17.10;86.00;;;;;;5053051;28;19909;-77
2023/12/25 13:42:00;;;;;;;;;;;17.10;85.50;;;;;;5052889;28;19919;-75
2023/12/25 13:44:26;;;;;;;;;;;17.10;85.90;;;;;;5052959;28;19995;-80
2023/12/25 13:46:51;;;;;;;;;;;17.10;85.80;;;;;;5052938;28;19909;-75
2023/12/25 13:49:17;;;;;;;;;;;17.10;85.60;;;;;;5052819;28;20038;-75
2023/12/25 13:51:43;;;;;;;;;;;17.10;85.90;;;;;;5052835;28;20333;-74
2023/12/25 13:54:08;;;;;;;;;;;17.10;85.70;;;;;;5052840;28;19916;-77
2023/12/25 13:56:34;;;;;;;;;;;17.10;85.80;;;;;;5052790;28;19932;-76
2023/12/25 13:58:59;;;;;;;;;;;17.00;85.60;;;;;;5052786;28;19909;-72
2023/12/25 14:01:25;;;;;;;;;;;17.00;85.50;;;;;;5052680;28;19909;-73
2023/12/25 14:03:50;;;;;;;;;;;17.00;85.60;;;;;;5052476;28;19924;-72
2023/12/25 14:06:16;;;;;;;;;;;17.00;85.70;;;;;;5052635;28;19916;-73
2023/12/25 14:08:41;;;;;;;;;;;17.00;85.60;;;;;;5052607;28;19913;-72
2023/12/25 14:11:07;;;;;;;;;;;17.10;85.80;;;;;;5052853;28;19923;-73
2023/12/25 14:13:33;;;;;;;;;;;17.20;85.50;;;;;;5052620;28;19962;-72
2023/12/25 14:15:58;;;;;;;;;;;17.00;85.80;;;;;;5052535;28;19909;-72
2023/12/25 14:18:24;;;;;;;;;;;17.00;85.70;;;;;;5052557;28;19909;-72
2023/12/25 14:20:50;;;;;;;;;;;17.10;85.90;;;;;;5052443;28;19913;-72
2023/12/25 14:23:16;;;;;;;;;;;17.00;85.60;;;;;;5052438;28;19915;-72
2023/12/25 14:25:42;;;;;;;;;;;17.00;85.50;;;;;;5052465;28;19912;-72
2023/12/25 14:28:08;;;;;;;;;;;17.00;85.70;;;;;;5052955;28;19916;-73
2023/12/25 14:30:34;;;;;;;;;;;17.10;85.70;;;;;;5052581;28;19947;-74
2023/12/25 14:32:59;;;;;;;;;;;17.10;86.00;;;;;;5052394;28;20294;-74
2023/12/25 14:35:25;;;;;;;;;;;17.10;85.80;;;;;;5052414;28;20426;-75
2023/12/25 14:37:50;;;;;;;;;;;17.10;85.90;;;;;;5052514;28;19913;-72
2023/12/25 14:40:16;;;;;;;;;;;17.10;86.00;;;;;;5052370;28;20050;-72
2023/12/25 14:42:41;;;;;;;;;;;17.00;85.70;;;;;;5052350;28;20379;-72
2023/12/25 14:45:08;;;;;;;;;;;17.10;86.10;;;;;;5052527;28;19937;-70
2023/12/25 14:47:33;;;;;;;;;;;17.10;83.60;;;;;;5052418;28;20001;-72
2023/12/25 14:49:59;;;;;;;;;;;17.10;86.00;;;;;;5052045;28;19999;-75
2023/12/25 14:52:24;;;;;;;;;;;17.00;86.10;;;;;;5052195;28;19908;-73
2023/12/25 14:54:52;;;;;;;;;;;16.90;85.90;;;;;;5052439;28;19912;-73
2023/12/25 14:57:18;;;;;;;;;;;17.00;85.80;;;;;;5052043;28;20406;-72
2023/12/25 14:59:44;;;;;;;;;;;17.10;86.40;;;;;;5051948;28;20371;-72
2023/12/25 15:02:10;;;;;;;;;;;17.00;86.00;;;;;;5051902;28;19948;-72
2023/12/25 15:04:36;;;;;;;;;;;17.00;86.20;;;;;;5052182;28;19932;-72
2023/12/25 15:07:03;;;;;;;;;;;17.00;86.70;;;;;;5051785;28;20359;-72
2023/12/25 15:09:29;;;;;;;;;;;17.00;85.40;;;;;;5052227;28;20000;-72
2023/12/25 15:11:55;;;;;;;;;;;17.10;86.10;;;;;;5054731;28;20323;-72
2023/12/25 15:14:21;;;;;;;;;;;17.10;86.10;;;;;;5055791;28;20375;-71
2023/12/25 15:16:47;;;;;;;;;;;17.00;86.20;;;;;;5055650;28;19909;-72
2023/12/25 15:19:13;;;;;;;;;;;17.10;86.40;;;;;;5055675;28;19909;-72
2023/12/25 15:21:39;;;;;;;;;;;17.00;86.20;;;;;;5055721;28;20295;-72
2023/12/25 15:24:05;;;;;;;;;;;17.00;86.20;;;;;;5056093;28;19909;-76
2023/12/25 15:26:32;;;;;;;;;;;17.00;86.10;;;;;;5055904;28;19955;-76
2023/12/25 15:28:58;;;;;;;;;;;17.10;86.40;;;;;;5055546;28;19998;-76
2023/12/25 15:31:24;;;;;;;;;;;17.10;86.30;;;;;;5055782;28;20264;-76
2023/12/25 15:33:50;;;;;;;;;;;17.20;86.20;;;;;;5055827;28;19920;-76
2023/12/25 15:36:22;;;;;;;;;;;17.10;86.30;;;;;;5055747;28;19916;-72
2023/12/25 15:38:49;;;;;;;;;;;17.10;81.10;;;;;;5055726;28;19909;-72
2023/12/25 15:41:15;;;;;;;;;;;17.10;86.40;;;;;;5055252;28;19909;-72
2023/12/25 15:43:41;;;;;;;;;;;17.10;86.30;;;;;;5055196;28;19920;-72
2023/12/25 15:46:07;;;;;;;;;;;17.00;86.10;;;;;;5037463;28;19909;-72
2023/12/25 15:48:33;;;;;;;;;;;17.10;86.20;;;;;;5055139;28;20437;-72
2023/12/25 15:50:59;;;;;;;;;;;17.10;86.30;;;;;;5055158;28;19917;-72
2023/12/25 15:53:25;;;;;;;;;;;16.90;86.10;;;;;;5055709;28;19912;-72
2023/12/25 15:55:51;;;;;;;;;;;17.00;86.30;;;;;;5055295;28;19909;-72
2023/12/25 15:58:17;;;;;;;;;;;17.00;86.20;;;;;;5054896;28;20422;-72
2023/12/25 16:00:43;;;;;;;;;;;17.00;86.30;;;;;;5055153;28;19963;-72
2023/12/25 16:03:10;;;;;;;;;;;17.10;86.00;;;;;;5054598;28;19920;-75
2023/12/25 16:05:36;;;;;;;;;;;17.00;86.20;;;;;;5054895;28;19916;-72
2023/12/25 16:08:02;;;;;;;;;;;17.00;86.20;;;;;;5055076;28;19909;-71
2023/12/25 16:10:29;;;;;;;;;;;17.00;85.30;;;;;;5054596;28;19917;-72
2023/12/25 16:12:55;;;;;;;;;;;17.00;86.20;;;;;;5054782;28;19909;-71
2023/12/25 16:15:21;;;;;;;;;;;16.90;86.00;;;;;;5054967;28;19912;-71
2023/12/25 16:17:47;;;;;;;;;;;17.10;86.30;;;;;;5054710;28;20291;-71
2023/12/25 16:20:13;;;;;;;;;;;17.00;86.10;;;;;;5055097;28;19962;-72
2023/12/25 16:22:38;;;;;;;;;;;17.00;86.10;;;;;;5054111;28;19913;-72
2023/12/25 16:25:04;;;;;;;;;;;16.90;86.10;;;;;;5054482;28;19909;-72
2023/12/25 16:27:30;;;;;;;;;;;16.90;84.80;;;;;;5054278;28;19915;-72
2023/12/25 16:29:55;;;;;;;;;;;16.90;86.10;;;;;;5054325;28;19917;-71
2023/12/25 16:32:21;;;;;;;;;;;17.00;86.50;;;;;;5054378;28;19948;-71
2023/12/25 16:34:46;;;;;;;;;;;17.00;86.40;;;;;;5054330;28;20350;-71
2023/12/25 16:37:12;;;;;;;;;;;17.00;86.10;;;;;;5054276;28;19909;-72
2023/12/25 16:39:41;;;;;;;;;;;17.00;86.50;;;;;;5054205;28;19962;-72
2023/12/25 16:42:07;;;;;;;;;;;17.00;81.20;;;;;;5054347;28;19984;-72
2023/12/25 16:44:32;;;;;;;;;;;17.00;86.40;;;;;;5054267;28;20004;-72
2023/12/25 16:46:58;;;;;;;;;;;17.10;86.30;;;;;;5054107;28;19931;-72
2023/12/25 16:49:23;;;;;;;;;;;16.90;86.40;;;;;;5054433;28;19931;-72
2023/12/25 16:51:49;;;;;;;;;;;17.00;86.30;;;;;;5054027;28;19909;-72
2023/12/25 16:54:15;;;;;;;;;;;17.00;86.50;;;;;;5053894;28;19915;-72
2023/12/25 16:56:41;;;;;;;;;;;17.00;86.30;;;;;;5053866;28;20305;-72
2023/12/25 16:59:06;;;;;;;;;;;17.10;86.50;;;;;;5053812;28;19909;-71
2023/12/25 17:01:32;;;;;;;;;;;16.90;86.20;;;;;;5053678;28;19927;-76
2023/12/25 17:03:58;;;;;;;;;;;17.00;86.40;;;;;;5053684;28;19924;-76
2023/12/25 17:06:23;;;;;;;;;;;16.90;86.40;;;;;;5053671;28;20012;-76
2023/12/25 17:08:49;;;;;;;;;;;16.90;86.30;;;;;;5053716;28;19955;-76
2023/12/25 17:11:14;;;;;;;;;;;17.00;86.50;;;;;;5053498;28;20420;-76
2023/12/25 17:13:40;;;;;;;;;;;16.90;86.30;;;;;;5053517;28;19917;-76
2023/12/25 17:16:06;;;;;;;;;;;17.00;86.50;;;;;;5053426;28;19908;-75
2023/12/25 17:18:31;;;;;;;;;;;16.90;85.80;;;;;;5054242;28;19944;-71
2023/12/25 17:20:57;;;;;;;;;;;17.00;86.60;;;;;;5053379;28;19954;-72
2023/12/25 17:23:22;;;;;;;;;;;17.00;86.50;;;;;;5053320;28;19909;-72
2023/12/25 17:25:48;;;;;;;;;;;17.00;86.50;;;;;;5053344;28;19909;-71
2023/12/25 17:28:14;;;;;;;;;;;17.00;86.50;;;;;;5053323;28;19909;-71
2023/12/25 17:30:39;;;;;;;;;;;16.90;86.30;;;;;;5053422;28;20302;-75
2023/12/25 17:33:05;;;;;;;;;;;17.00;86.50;;;;;;5052839;28;19909;-75
2023/12/25 17:35:35;;;;;;;;;;;16.90;86.40;;;;;;5052820;28;19913;-75
2023/12/25 17:38:01;;;;;;;;;;;16.80;81.60;;;;;;5053121;28;20007;-75
2023/12/25 17:40:26;;;;;;;;;;;16.90;86.40;;;;;;5053051;28;19948;-75
2023/12/25 17:42:52;;;;;;;;;;;16.90;86.40;;;;;;5053116;28;19916;-76
2023/12/25 17:45:17;;;;;;;;;;;17.00;86.40;;;;;;5053061;28;19955;-75
2023/12/25 17:47:43;;;;;;;;;;;17.00;86.60;;;;;;5053414;28;19933;-75
2023/12/25 17:50:09;;;;;;;;;;;16.90;86.30;;;;;;5052916;28;19940;-75
2023/12/25 17:52:34;;;;;;;;;;;16.90;86.40;;;;;;5052862;28;19908;-75
2023/12/25 17:55:00;;;;;;;;;;;17.00;86.60;;;;;;5052790;28;20020;-75
2023/12/25 17:57:25;;;;;;;;;;;16.90;86.50;;;;;;5052846;28;19960;-75
2023/12/25 17:59:51;;;;;;;;;;;16.90;86.50;;;;;;5052807;28;20581;-75
2023/12/25 18:02:16;;;;;;;;;;;16.90;86.30;;;;;;5052500;28;20003;-75
2023/12/25 18:04:42;;;;;;;;;;;16.90;86.30;;;;;;5052629;28;20004;-75
2023/12/25 18:07:07;;;;;;;;;;;16.80;86.50;;;;;;5052716;28;19909;-75
2023/12/25 18:09:33;;;;;;;;;;;17.00;86.40;;;;;;5052590;28;20394;-75
2023/12/25 18:11:58;;;;;;;;;;;16.90;86.40;;;;;;5052651;28;19909;-75
2023/12/25 18:14:24;;;;;;;;;;;16.90;86.30;;;;;;5053431;28;19963;-71
2023/12/25 18:16:49;;;;;;;;;;;16.90;86.50;;;;;;5052480;28;19909;-71
2023/12/25 18:19:15;;;;;;;;;;;16.80;86.30;;;;;;5052561;28;20000;-71
2023/12/25 18:21:40;;;;;;;;;;;16.80;86.30;;;;;;5052489;28;19967;-70
2023/12/25 18:24:06;;;;;;;;;;;16.90;86.30;;;;;;5052527;28;19963;-70
2023/12/25 18:26:32;;;;;;;;;;;16.90;85.30;;;;;;5052569;28;19916;-75
2023/12/25 18:28:57;;;;;;;;;;;16.90;86.40;;;;;;5052708;28;19919;-75
2023/12/25 18:31:23;;;;;;;;;;;16.80;86.10;;;;;;5052382;28;19923;-75
2023/12/25 18:33:48;;;;;;;;;;;16.90;86.40;;;;;;5052344;28;19909;-75
2023/12/25 18:36:14;;;;;;;;;;;16.80;86.20;;;;;;5052419;28;19909;-75
2023/12/25 18:38:40;;;;;;;;;;;16.80;86.00;;;;;;5052295;28;19909;-75
2023/12/25 18:41:06;;;;;;;;;;;16.80;86.20;;;;;;5052356;28;20011;-75
2023/12/25 18:43:34;;;;;;;;;;;16.80;86.20;;;;;;5052867;28;19916;-75
2023/12/25 18:45:59;;;;;;;;;;;16.80;87.00;;;;;;5054953;28;19909;-75
2023/12/25 18:48:25;;;;;;;;;;;16.80;86.20;;;;;;5056365;28;19915;-75
2023/12/25 18:50:51;;;;;;;;;;;16.80;86.40;;;;;;5056096;28;19928;-75
2023/12/25 18:53:17;;;;;;;;;;;16.80;86.20;;;;;;5056411;28;19931;-75
2023/12/25 18:55:43;;;;;;;;;;;16.80;86.40;;;;;;5056543;28;19913;-75
2023/12/25 18:58:09;;;;;;;;;;;16.80;86.30;;;;;;5056163;28;20296;-75
2023/12/25 19:00:35;;;;;;;;;;;16.90;86.40;;;;;;5056149;28;20003;-74
2023/12/25 19:03:00;;;;;;;;;;;16.70;86.20;;;;;;5055680;28;19920;-77
2023/12/25 19:05:26;;;;;;;;;;;16.70;86.20;;;;;;5056310;28;19912;-74
2023/12/25 19:07:51;;;;;;;;;;;16.80;86.50;;;;;;5055913;28;19948;-74
2023/12/25 19:10:17;;;;;;;;;;;16.70;86.40;;;;;;5055804;28;19916;-76
2023/12/25 19:12:44;;;;;;;;;;;16.70;86.10;;;;;;5056331;28;19912;-72
2023/12/25 19:15:10;;;;;;;;;;;16.70;86.30;;;;;;5055708;28;19909;-72
2023/12/25 19:17:35;;;;;;;;;;;16.80;86.50;;;;;;5055714;28;19970;-72